Aviation Digital Data Service (ADDS)

Output produced by TAFs form (1351 UTC 27 February 2017)
found at http://www.aviationweather.gov/adds/tafs/
 
KMRB 271120Z 2712/2812 VRB03KT P6SM SCT100 OVC120